createdAt,value
2022-11-15T00:01:19.341Z,95421.88
2022-11-15T00:03:47.610Z,95420.34
2022-11-15T00:06:17.006Z,95414.44
2022-11-15T00:08:47.542Z,95412.06
2022-11-15T00:11:15.245Z,95416.00
2022-11-15T00:13:44.283Z,95405.44
2022-11-15T00:16:12.480Z,95405.72
2022-11-15T00:18:40.864Z,95405.78
2022-11-15T00:21:10.038Z,95411.81
2022-11-15T00:23:38.274Z,95408.78
2022-11-15T00:26:06.280Z,95402.78
2022-11-15T00:28:34.089Z,95402.09
2022-11-15T00:31:04.242Z,95404.41
2022-11-15T00:33:33.154Z,95404.84
2022-11-15T00:36:10.180Z,95397.66
2022-11-15T00:38:39.567Z,95399.38
2022-11-15T00:41:10.927Z,95399.69
2022-11-15T00:43:40.766Z,95401.75
2022-11-15T00:46:15.286Z,95400.72
2022-11-15T00:48:42.973Z,95388.41
2022-11-15T00:51:10.667Z,95395.88
2022-11-15T00:53:38.467Z,95385.44
2022-11-15T00:56:06.580Z,95388.09
2022-11-15T00:58:34.324Z,95379.72
2022-11-15T01:01:10.873Z,95376.47
2022-11-15T01:03:40.115Z,95374.50
2022-11-15T01:06:08.533Z,95365.06
2022-11-15T01:08:36.588Z,95370.63
2022-11-15T01:11:05.114Z,95360.19
2022-11-15T01:13:39.852Z,95364.63
2022-11-15T01:16:11.345Z,95363.81
2022-11-15T01:18:39.066Z,95364.25
2022-11-15T01:21:08.808Z,95354.84
2022-11-15T01:23:38.686Z,95355.16
2022-11-15T01:26:08.424Z,95353.53
2022-11-15T01:28:45.159Z,95359.53
2022-11-15T01:31:16.819Z,95349.53
2022-11-15T01:33:45.162Z,95345.00
2022-11-15T01:36:15.770Z,95340.72
2022-11-15T01:38:43.594Z,95341.97
2022-11-15T01:41:17.663Z,95342.19
2022-11-15T01:43:45.660Z,95336.41
2022-11-15T01:46:32.950Z,95326.34
2022-11-15T01:49:04.393Z,95319.16
2022-11-15T01:51:35.046Z,95317.53
2022-11-15T01:54:13.612Z,95324.94
2022-11-15T01:56:47.286Z,95317.16
2022-11-15T01:59:15.472Z,95316.72
2022-11-15T02:01:45.170Z,95314.41
2022-11-15T02:04:17.234Z,95308.75
2022-11-15T02:06:46.210Z,95312.94
2022-11-15T02:09:15.067Z,95302.03
2022-11-15T02:11:43.596Z,95300.63
2022-11-15T02:14:14.981Z,95297.16
2022-11-15T02:16:55.197Z,95293.72
2022-11-15T02:19:41.562Z,95292.91
2022-11-15T02:22:24.172Z,95289.44
2022-11-15T02:25:04.834Z,95290.91
2022-11-15T02:28:12.702Z,95291.38
2022-11-15T02:30:45.118Z,95299.09
2022-11-15T02:33:23.913Z,95296.78
2022-11-15T02:35:59.281Z,95289.97
2022-11-15T02:38:39.444Z,95293.81
2022-11-15T02:41:11.579Z,95289.75
2022-11-15T02:43:59.449Z,95282.56
2022-11-15T02:47:04.531Z,95291.22
2022-11-15T02:49:36.155Z,95289.06
2022-11-15T02:52:04.261Z,95278.06
2022-11-15T02:54:34.069Z,95279.47
2022-11-15T02:57:05.781Z,95281.81
2022-11-15T02:59:59.923Z,95276.28
2022-11-15T03:02:41.883Z,95278.88
2022-11-15T03:05:19.809Z,95278.88
2022-11-15T03:08:01.867Z,95273.22
2022-11-15T03:10:42.952Z,95262.56
2022-11-15T03:13:20.275Z,95264.84
2022-11-15T03:15:57.839Z,95256.53
2022-11-15T03:18:33.179Z,95262.06
2022-11-15T03:21:05.650Z,95264.03
2022-11-15T03:23:35.310Z,95261.63
2022-11-15T03:26:03.616Z,95261.25
2022-11-15T03:28:38.433Z,95259.19
2022-11-15T03:31:28.185Z,95255.38
2022-11-15T03:34:00.168Z,95248.53
2022-11-15T03:36:29.256Z,95252.00
2022-11-15T03:39:01.260Z,95243.63
2022-11-15T03:41:38.465Z,95241.47
2022-11-15T03:44:13.965Z,95228.03
2022-11-15T03:46:44.786Z,95232.63
2022-11-15T03:49:20.345Z,95230.78
2022-11-15T03:51:48.259Z,95239.81
2022-11-15T03:54:16.229Z,95236.53
2022-11-15T03:56:43.901Z,95225.50
2022-11-15T03:59:14.833Z,95231.66
2022-11-15T04:01:42.511Z,95234.31
2022-11-15T04:04:10.237Z,95227.75
2022-11-15T04:06:39.308Z,95229.16
2022-11-15T04:09:07.129Z,95220.94
2022-11-15T04:11:34.807Z,95214.34
2022-11-15T04:14:02.621Z,95216.41
2022-11-15T04:16:30.276Z,95214.97
2022-11-15T04:19:12.245Z,95213.66
2022-11-15T04:22:01.209Z,95212.25
2022-11-15T04:24:28.906Z,95209.69
2022-11-15T04:26:56.568Z,95204.84
2022-11-15T04:29:36.364Z,95209.19
2022-11-15T04:32:04.555Z,95204.47
2022-11-15T04:34:33.731Z,95203.06
2022-11-15T04:37:13.682Z,95201.34
2022-11-15T04:39:41.629Z,95200.97
2022-11-15T04:42:11.723Z,95196.25
2022-11-15T04:44:39.438Z,95197.28
2022-11-15T04:47:07.122Z,95197.06
2022-11-15T04:49:37.737Z,95187.44
2022-11-15T04:52:06.878Z,95194.03
2022-11-15T04:54:34.519Z,95192.91
2022-11-15T04:57:02.243Z,95197.91
2022-11-15T04:59:32.826Z,95203.69
2022-11-15T05:02:00.531Z,95198.19
2022-11-15T05:04:27.389Z,95191.69
2022-11-15T05:06:55.131Z,95189.13
2022-11-15T05:09:24.760Z,95182.75
2022-11-15T05:11:52.957Z,95180.91
2022-11-15T05:14:20.628Z,95180.91
2022-11-15T05:16:48.304Z,95176.88
2022-11-15T05:19:16.114Z,95184.72
2022-11-15T05:21:43.788Z,95178.25
2022-11-15T05:24:12.244Z,95168.19
2022-11-15T05:26:43.981Z,95164.09
2022-11-15T05:29:14.934Z,95166.19
2022-11-15T05:31:43.452Z,95169.28
2022-11-15T05:34:11.991Z,95166.19
2022-11-15T05:36:43.230Z,95157.38
2022-11-15T05:39:11.039Z,95155.16
2022-11-15T05:41:42.017Z,95155.75
2022-11-15T05:44:17.006Z,95154.78
2022-11-15T05:46:45.768Z,95156.41
2022-11-15T05:49:17.301Z,95155.16
2022-11-15T05:51:45.956Z,95156.63
2022-11-15T05:54:13.867Z,95157.88
2022-11-15T05:56:41.774Z,95152.13
2022-11-15T05:59:12.977Z,95147.81
2022-11-15T06:01:41.673Z,95148.53
2022-11-15T06:04:11.069Z,95150.59
2022-11-15T06:06:38.709Z,95147.78
2022-11-15T06:09:06.405Z,95141.47
2022-11-15T06:11:34.076Z,95139.19
2022-11-15T06:14:01.743Z,95134.69
2022-11-15T06:16:31.285Z,95141.56
2022-11-15T06:18:59.217Z,95143.59
2022-11-15T06:21:28.769Z,95140.47
2022-11-15T06:23:56.623Z,95134.81
2022-11-15T06:26:24.347Z,95132.34
2022-11-15T06:28:52.031Z,95133.41
2022-11-15T06:31:24.842Z,95136.72
2022-11-15T06:33:53.841Z,95136.94
2022-11-15T06:36:21.679Z,95142.66
2022-11-15T06:38:51.939Z,95141.91
2022-11-15T06:41:19.829Z,95142.72
2022-11-15T06:43:47.480Z,95143.75
2022-11-15T06:46:15.142Z,95142.72
2022-11-15T06:48:42.830Z,95142.44
2022-11-15T06:51:11.879Z,95145.47
2022-11-15T06:53:39.508Z,95146.97
2022-11-15T06:56:10.006Z,95148.91
2022-11-15T06:58:38.108Z,95148.34
2022-11-15T07:01:10.489Z,95146.75
2022-11-15T07:03:41.971Z,95148.47
2022-11-15T07:06:14.022Z,95150.56
2022-11-15T07:08:42.603Z,95146.19
2022-11-15T07:11:10.530Z,95142.34
2022-11-15T07:13:38.927Z,95147.72
2022-11-15T07:16:08.271Z,95146.94
2022-11-15T07:18:36.364Z,95151.34
2022-11-15T07:21:05.034Z,95149.25
2022-11-15T07:23:34.538Z,95151.59
2022-11-15T07:26:02.545Z,95143.38
2022-11-15T07:28:30.775Z,95150.56
2022-11-15T07:30:58.762Z,95154.53
2022-11-15T07:33:26.439Z,95153.72
2022-11-15T07:35:54.078Z,95138.84
2022-11-15T07:38:21.730Z,95136.53
2022-11-15T07:40:58.343Z,95138.38
2022-11-15T07:43:29.488Z,95132.22
2022-11-15T07:45:59.543Z,95133.00
2022-11-15T07:48:40.211Z,95132.19
2022-11-15T07:51:14.380Z,95129.88
2022-11-15T07:53:42.359Z,95125.75
2022-11-15T07:56:12.175Z,95124.66
2022-11-15T07:58:42.840Z,95126.97
2022-11-15T08:01:12.118Z,95122.38
2022-11-15T08:03:40.196Z,95117.84
2022-11-15T08:06:08.142Z,95118.78
2022-11-15T08:08:35.882Z,95113.59
2022-11-15T08:11:04.241Z,95099.94
2022-11-15T08:13:33.668Z,95106.13
2022-11-15T08:16:01.921Z,95096.88
2022-11-15T08:18:29.695Z,95092.66
2022-11-15T08:21:01.479Z,95078.19
2022-11-15T08:23:30.050Z,95070.41
2022-11-15T08:26:02.485Z,95070.47
2022-11-15T08:28:32.483Z,95060.09
2022-11-15T08:31:03.539Z,95066.38
2022-11-15T08:33:31.966Z,95042.78
2022-11-15T08:36:00.909Z,95043.75
2022-11-15T08:38:30.528Z,95040.97
2022-11-15T08:41:03.330Z,95040.53
2022-11-15T08:43:31.349Z,95043.59
2022-11-15T08:46:00.891Z,95038.81
2022-11-15T08:48:28.833Z,95037.28
2022-11-15T08:50:57.104Z,95038.69
2022-11-15T08:53:25.068Z,95028.78
2022-11-15T08:55:52.810Z,95027.44
2022-11-15T08:58:22.473Z,95028.53
2022-11-15T09:00:50.211Z,95023.88
2022-11-15T09:03:19.255Z,95026.22
2022-11-15T09:05:46.962Z,95029.06
2022-11-15T09:08:45.649Z,95022.13
2022-11-15T09:11:06.687Z,95019.72
2022-11-15T09:13:35.128Z,95018.72
2022-11-15T09:16:03.487Z,95008.81
2022-11-15T09:18:33.344Z,95006.06
2022-11-15T09:21:04.687Z,94999.19
2022-11-15T09:23:32.516Z,94994.75
2022-11-15T09:26:04.545Z,94989.66
2022-11-15T09:28:34.101Z,94976.28
2022-11-15T09:31:09.001Z,94976.88
2022-11-15T09:33:38.414Z,94970.69
2022-11-15T09:36:10.395Z,94980.38
2022-11-15T09:38:38.925Z,94969.81
2022-11-15T09:41:26.419Z,94964.13
2022-11-15T09:44:09.345Z,94958.38
2022-11-15T09:46:46.611Z,94943.50
2022-11-15T09:49:17.477Z,94937.13
2022-11-15T09:51:48.608Z,94935.63
2022-11-15T09:57:19.437Z,94928.75
2022-11-15T10:00:23.873Z,94925.03
2022-11-15T10:03:02.795Z,94919.56
2022-11-15T10:05:34.022Z,94917.84
2022-11-15T10:08:15.024Z,94912.75
2022-11-15T10:10:45.646Z,94913.44
2022-11-15T10:13:21.642Z,94910.69
2022-11-15T10:15:51.378Z,94904.34
2022-11-15T10:18:23.295Z,94897.97
2022-11-15T10:20:57.596Z,94896.59
2022-11-15T10:23:27.307Z,94894.56
2022-11-15T10:26:00.034Z,94894.56
2022-11-15T10:28:32.390Z,94888.66
2022-11-15T10:31:01.896Z,94884.06
2022-11-15T10:33:35.694Z,94878.91
2022-11-15T10:36:24.763Z,94877.63
2022-11-15T10:38:59.935Z,94869.94
2022-11-15T10:41:38.397Z,94863.28
2022-11-15T10:44:14.240Z,94856.09
2022-11-15T10:46:47.046Z,94848.91
2022-11-15T10:49:17.794Z,94846.53
2022-11-15T10:51:50.409Z,94844.31
2022-11-15T10:54:27.680Z,94844.91
2022-11-15T10:56:57.890Z,94828.69
2022-11-15T10:59:37.763Z,94825.91
2022-11-15T11:02:35.582Z,94822.34
2022-11-15T11:05:03.336Z,94822.53
2022-11-15T11:07:34.604Z,94816.59
2022-11-15T11:10:29.029Z,94819.47
2022-11-15T11:12:54.938Z,94817.59
2022-11-15T11:15:28.953Z,94807.75
2022-11-15T11:18:07.394Z,94806.00
2022-11-15T11:20:40.515Z,94799.38
2022-11-15T11:23:29.091Z,94795.56
2022-11-15T11:26:07.232Z,94793.13
2022-11-15T11:28:44.150Z,94791.22
2022-11-15T11:31:27.272Z,94783.50
2022-11-15T11:34:06.703Z,94781.13
2022-11-15T11:36:42.366Z,94774.38
2022-11-15T11:39:23.172Z,94765.44
2022-11-15T11:42:09.019Z,94760.63
2022-11-15T11:44:45.793Z,94750.97
2022-11-15T11:47:18.602Z,94755.13
2022-11-15T11:49:51.762Z,94754.53
2022-11-15T11:52:24.125Z,94769.44
2022-11-15T11:55:00.031Z,94767.88
2022-11-15T11:57:37.994Z,94754.50
2022-11-15T12:00:16.375Z,94753.25
2022-11-15T12:02:47.033Z,94747.19
2022-11-15T12:05:20.262Z,94740.00
2022-11-15T12:07:51.793Z,94746.56
2022-11-15T12:10:26.295Z,94742.19
2022-11-15T12:13:02.080Z,94739.78
2022-11-15T12:15:33.639Z,94731.63
2022-11-15T12:18:03.504Z,94735.47
2022-11-15T12:20:35.827Z,94728.81
2022-11-15T12:23:11.470Z,94729.69
2022-11-15T12:25:47.999Z,94732.25
2022-11-15T12:28:20.612Z,94730.22
2022-11-15T12:30:53.962Z,94727.22
2022-11-15T12:33:38.150Z,94728.78
2022-11-15T12:36:12.400Z,94730.72
2022-11-15T12:38:58.905Z,94724.00
2022-11-15T12:41:29.638Z,94724.44
2022-11-15T12:44:01.429Z,94712.72
2022-11-15T12:47:01.790Z,94725.31
2022-11-15T12:49:49.142Z,94717.31
2022-11-15T12:52:21.677Z,94717.56
2022-11-15T12:55:40.020Z,94709.19
2022-11-15T12:58:31.298Z,94714.00
2022-11-15T13:01:02.005Z,94713.66
2022-11-15T13:03:30.924Z,94710.41
2022-11-15T13:06:02.117Z,94699.22
2022-11-15T13:08:51.811Z,94696.59
2022-11-15T13:11:59.270Z,94701.97
2022-11-15T13:14:51.759Z,94693.44
2022-11-15T13:17:37.217Z,94698.31
2022-11-15T13:20:26.873Z,94704.16
2022-11-15T13:23:03.052Z,94691.44
2022-11-15T13:26:01.921Z,94689.50
2022-11-15T13:28:35.131Z,94691.25
2022-11-15T13:31:21.491Z,94686.06
2022-11-15T13:33:49.352Z,94688.19
2022-11-15T13:36:22.389Z,94674.22
2022-11-15T13:38:57.596Z,94672.06
2022-11-15T13:41:26.610Z,94676.00
2022-11-15T13:43:55.857Z,94668.91
2022-11-15T13:46:26.251Z,94663.81
2022-11-15T13:48:56.888Z,94659.31
2022-11-15T13:51:35.331Z,94657.09
2022-11-15T13:54:15.826Z,94663.78
2022-11-15T13:56:46.586Z,94653.53
2022-11-15T13:59:20.769Z,94665.78
2022-11-15T14:01:51.672Z,94665.84
2022-11-15T14:04:22.171Z,94676.63
2022-11-15T14:07:00.095Z,94677.91
2022-11-15T14:09:36.427Z,94689.56
2022-11-15T14:12:23.732Z,94693.84
2022-11-15T14:14:51.600Z,94688.38
2022-11-15T14:17:37.780Z,94694.34
2022-11-15T14:20:29.348Z,94694.94
2022-11-15T14:22:59.650Z,94690.69
2022-11-15T14:25:33.245Z,94702.25
2022-11-15T14:28:34.989Z,94698.47
2022-11-15T14:31:03.187Z,94696.94
2022-11-15T14:33:33.945Z,94693.78
2022-11-15T14:36:07.386Z,94697.06
2022-11-15T14:38:35.854Z,94702.59
2022-11-15T14:41:03.752Z,94702.25
2022-11-15T14:43:33.035Z,94706.84
2022-11-15T14:46:01.303Z,94708.84
2022-11-15T14:48:29.998Z,94707.47
2022-11-15T14:51:04.252Z,94705.19
2022-11-15T14:53:34.372Z,94709.13
2022-11-15T14:56:02.012Z,94711.41
2022-11-15T14:58:29.844Z,94702.78
2022-11-15T15:01:07.592Z,94702.28
2022-11-15T15:03:37.048Z,94698.13
2022-11-15T15:06:12.386Z,94697.47
2022-11-15T15:08:44.194Z,94693.50
2022-11-15T15:11:18.969Z,94695.84
2022-11-15T15:13:49.558Z,94698.97
2022-11-15T15:16:19.979Z,94694.44
2022-11-15T15:18:52.415Z,94702.59
2022-11-15T15:21:35.371Z,94695.13
2022-11-15T15:24:04.416Z,94695.78
2022-11-15T15:26:34.597Z,94697.50
2022-11-15T15:29:02.265Z,94694.41
2022-11-15T15:31:32.026Z,94698.78
2022-11-15T15:33:59.701Z,94693.19
2022-11-15T15:36:29.127Z,94701.53
2022-11-15T15:39:00.116Z,94704.41
2022-11-15T15:41:28.051Z,94711.09
2022-11-15T15:43:56.979Z,94706.84
2022-11-15T15:46:24.744Z,94711.38
2022-11-15T15:48:52.413Z,94707.00
2022-11-15T15:51:20.847Z,94712.53
2022-11-15T15:53:53.722Z,94714.28
2022-11-15T15:56:21.386Z,94716.47
2022-11-15T15:58:49.061Z,94707.63
2022-11-15T16:01:16.742Z,94704.47
2022-11-15T16:03:44.454Z,94701.50
2022-11-15T16:06:37.254Z,94703.41
2022-11-15T16:09:16.155Z,94705.94
2022-11-15T16:11:45.932Z,94703.88
2022-11-15T16:14:13.875Z,94695.94
2022-11-15T16:16:41.532Z,94690.84
2022-11-15T16:19:12.380Z,94687.63
2022-11-15T16:21:40.044Z,94687.63
2022-11-15T16:24:09.091Z,94680.06
2022-11-15T16:26:37.772Z,94680.19
2022-11-15T16:29:05.475Z,94680.47
2022-11-15T16:31:33.106Z,94680.22
2022-11-15T16:34:00.991Z,94681.06
2022-11-15T16:36:33.044Z,94679.75
2022-11-15T16:39:01.192Z,94679.00
2022-11-15T16:41:30.680Z,94675.59
2022-11-15T16:43:58.564Z,94679.44
2022-11-15T16:46:27.629Z,94676.22
2022-11-15T16:48:55.676Z,94666.56
2022-11-15T16:51:24.261Z,94662.84
2022-11-15T16:53:51.949Z,94671.25
2022-11-15T16:56:28.339Z,94665.41
2022-11-15T16:58:59.770Z,94654.91
2022-11-15T17:01:28.840Z,94661.22
2022-11-15T17:03:57.034Z,94652.59
2022-11-15T17:06:26.057Z,94657.03
2022-11-15T17:08:53.988Z,94651.16
2022-11-15T17:11:23.222Z,94650.63
2022-11-15T17:13:50.945Z,94643.41
2022-11-15T17:16:19.970Z,94644.34
2022-11-15T17:18:52.113Z,94647.31
2022-11-15T17:21:22.339Z,94645.13
2022-11-15T17:23:50.661Z,94651.34
2022-11-15T17:26:29.645Z,94654.03
2022-11-15T17:29:00.935Z,94657.00
2022-11-15T17:31:31.205Z,94652.44
2022-11-15T17:33:58.872Z,94646.50
2022-11-15T17:36:26.499Z,94647.59
2022-11-15T17:38:59.078Z,94641.22
2022-11-15T17:41:27.582Z,94646.03
2022-11-15T17:43:57.877Z,94639.13
2022-11-15T17:46:25.600Z,94640.56
2022-11-15T17:48:56.264Z,94644.00
2022-11-15T17:51:24.191Z,94643.25
2022-11-15T17:53:52.874Z,94643.00
2022-11-15T17:56:22.598Z,94633.88
2022-11-15T17:58:51.022Z,94629.63
2022-11-15T18:01:21.708Z,94623.69
2022-11-15T18:03:50.402Z,94628.84
2022-11-15T18:06:20.945Z,94620.53
2022-11-15T18:08:51.050Z,94617.88
2022-11-15T18:11:20.821Z,94617.91
2022-11-15T18:13:53.424Z,94618.19
2022-11-15T18:16:26.012Z,94617.97
2022-11-15T18:18:54.533Z,94608.84
2022-11-15T18:21:25.261Z,94607.22
2022-11-15T18:23:55.570Z,94609.91
2022-11-15T18:26:27.096Z,94608.06
2022-11-15T18:28:58.753Z,94609.41
2022-11-15T18:31:28.433Z,94608.59
2022-11-15T18:33:56.445Z,94616.63
2022-11-15T18:36:27.770Z,94610.22
2022-11-15T18:38:56.553Z,94603.22
2022-11-15T18:41:28.216Z,94605.91
2022-11-15T18:43:56.491Z,94606.16
2022-11-15T18:46:26.294Z,94596.19
2022-11-15T18:48:55.240Z,94593.50
2022-11-15T18:51:26.175Z,94592.69
2022-11-15T18:53:54.913Z,94590.00
2022-11-15T18:56:24.103Z,94580.88
2022-11-15T18:58:55.100Z,94571.19
2022-11-15T19:01:25.687Z,94576.31
2022-11-15T19:03:55.275Z,94577.91
2022-11-15T19:06:26.367Z,94569.31
2022-11-15T19:08:56.292Z,94574.16
2022-11-15T19:11:28.006Z,94570.91
2022-11-15T19:13:56.751Z,94572.53
2022-11-15T19:16:25.261Z,94567.41
2022-11-15T19:18:55.637Z,94562.59
2022-11-15T19:21:25.528Z,94550.47
2022-11-15T19:23:54.227Z,94550.47
2022-11-15T19:26:23.937Z,94563.66
2022-11-15T19:28:53.376Z,94559.31
2022-11-15T19:31:23.527Z,94551.81
2022-11-15T19:33:54.053Z,94545.09
2022-11-15T19:36:23.280Z,94544.03
2022-11-15T19:38:52.369Z,94547.78
2022-11-15T19:41:21.579Z,94548.59
2022-11-15T19:43:51.948Z,94545.09
2022-11-15T19:46:21.884Z,94539.19
2022-11-15T19:48:50.305Z,94542.66
2022-11-15T19:51:21.493Z,94538.84
2022-11-15T19:53:49.210Z,94547.72
2022-11-15T19:56:19.634Z,94534.03
2022-11-15T19:58:47.932Z,94535.09
2022-11-15T20:01:19.017Z,94533.72
2022-11-15T20:03:47.675Z,94539.38
2022-11-15T20:06:16.910Z,94536.69
2022-11-15T20:08:45.196Z,94534.56
2022-11-15T20:11:13.943Z,94525.41
2022-11-15T20:13:45.313Z,94515.72
2022-11-15T20:16:17.659Z,94523.78
2022-11-15T20:18:45.499Z,94510.63
2022-11-15T20:21:13.477Z,94513.09
2022-11-15T20:23:41.224Z,94508.78
2022-11-15T20:26:09.449Z,94507.41
2022-11-15T20:28:39.001Z,94504.44
2022-11-15T20:31:09.346Z,94502.28
2022-11-15T20:33:37.027Z,94497.69
2022-11-15T20:36:05.962Z,94501.19
2022-11-15T20:38:34.493Z,94493.94
2022-11-15T20:41:02.583Z,94489.63
2022-11-15T20:43:30.433Z,94480.69
2022-11-15T20:45:58.280Z,94476.88
2022-11-15T20:48:27.422Z,94481.16
2022-11-15T20:51:06.892Z,94482.19
2022-11-15T20:53:35.160Z,94480.56
2022-11-15T20:56:08.324Z,94479.00
2022-11-15T20:58:36.493Z,94483.81
2022-11-15T21:01:04.753Z,94473.38
2022-11-15T21:03:34.561Z,94459.94
2022-11-15T21:06:02.270Z,94458.88
2022-11-15T21:08:49.757Z,94451.09
2022-11-15T21:11:34.958Z,94443.50
2022-11-15T21:14:07.716Z,94444.03
2022-11-15T21:16:36.901Z,94444.03
2022-11-15T21:19:06.598Z,94447.22
2022-11-15T21:21:34.621Z,94431.06
2022-11-15T21:24:03.792Z,94429.19
2022-11-15T21:26:31.517Z,94425.13
2022-11-15T21:28:59.225Z,94425.13
2022-11-15T21:31:27.009Z,94420.63
2022-11-15T21:33:54.699Z,94413.03
2022-11-15T21:36:25.024Z,94410.88
2022-11-15T21:38:53.605Z,94404.75
2022-11-15T21:41:21.410Z,94399.66
2022-11-15T21:43:49.072Z,94399.94
2022-11-15T21:46:16.740Z,94391.34
2022-11-15T21:48:44.528Z,94388.38
2022-11-15T21:51:12.766Z,94388.00
2022-11-15T21:53:42.102Z,94391.25
2022-11-15T21:56:11.829Z,94376.25
2022-11-15T21:58:40.488Z,94381.38
2022-11-15T22:01:26.740Z,94380.28
2022-11-15T22:03:54.422Z,94379.94
2022-11-15T22:06:22.213Z,94376.25
2022-11-15T22:08:51.233Z,94370.94
2022-11-15T22:11:18.902Z,94376.38
2022-11-15T22:13:46.593Z,94364.06
2022-11-15T22:16:14.315Z,94364.09
2022-11-15T22:18:42.126Z,94356.88
2022-11-15T22:21:13.702Z,94357.72
2022-11-15T22:23:42.134Z,94345.09
2022-11-15T22:26:13.171Z,94336.00
2022-11-15T22:28:41.115Z,94337.38
2022-11-15T22:31:09.595Z,94334.06
2022-11-15T22:33:37.989Z,94334.03
2022-11-15T22:36:07.241Z,94336.41
2022-11-15T22:38:35.291Z,94343.44
2022-11-15T22:41:03.766Z,94338.63
2022-11-15T22:43:32.944Z,94338.63
2022-11-15T22:46:02.441Z,94339.25
2022-11-15T22:48:33.971Z,94333.31
2022-11-15T22:51:02.677Z,94343.25
2022-11-15T22:53:31.249Z,94349.66
2022-11-15T22:56:00.852Z,94351.84
2022-11-15T23:04:04.475Z,94335.91
2022-11-15T23:06:32.304Z,94322.78
2022-11-15T23:09:00.153Z,94321.19
2022-11-15T23:11:45.246Z,94327.91
2022-11-15T23:14:13.065Z,94320.41
2022-11-15T23:16:40.914Z,94317.78
2022-11-15T23:19:11.838Z,94320.25
2022-11-15T23:21:58.743Z,94318.34
2022-11-15T23:24:27.402Z,94317.03
2022-11-15T23:26:57.261Z,94322.66
2022-11-15T23:29:26.618Z,94319.88
2022-11-15T23:32:27.899Z,94318.53
2022-11-15T23:34:57.106Z,94315.09
2022-11-15T23:37:24.884Z,94304.41
2022-11-15T23:39:53.202Z,94293.44
2022-11-15T23:42:21.506Z,94292.91
2022-11-15T23:44:50.701Z,94293.72
2022-11-15T23:47:19.511Z,94278.97
2022-11-15T23:49:50.856Z,94267.47
2022-11-15T23:52:24.542Z,94258.38
2022-11-15T23:54:52.457Z,94259.72
2022-11-15T23:57:20.315Z,94258.09
2022-11-15T23:59:50.106Z,94254.88
